sensor_id;sensor_type;location;lat;lon;timestamp;P1;durP1;ratioP1;P2;durP2;ratioP2
32788;SDS011;19141;48.980;8.410;2022-10-16T04:22:50;3.40;;;1.98;;
32788;SDS011;19141;48.980;8.410;2022-10-16T04:25:15;2.40;;;1.33;;
32788;SDS011;19141;48.980;8.410;2022-10-16T04:27:41;2.45;;;1.48;;
32788;SDS011;19141;48.980;8.410;2022-10-16T04:30:06;2.75;;;1.80;;
32788;SDS011;19141;48.980;8.410;2022-10-16T04:32:32;1.92;;;1.17;;
32788;SDS011;19141;48.980;8.410;2022-10-16T04:34:57;3.05;;;1.88;;
32788;SDS011;19141;48.980;8.410;2022-10-16T04:37:23;2.03;;;1.40;;
32788;SDS011;19141;48.980;8.410;2022-10-16T04:39:50;2.47;;;1.48;;
32788;SDS011;19141;48.980;8.410;2022-10-16T04:42:16;2.40;;;1.30;;
32788;SDS011;19141;48.980;8.410;2022-10-16T04:44:41;2.80;;;1.35;;
32788;SDS011;19141;48.980;8.410;2022-10-16T04:47:07;2.33;;;1.25;;
32788;SDS011;19141;48.980;8.410;2022-10-16T04:49:32;2.50;;;1.20;;
32788;SDS011;19141;48.980;8.410;2022-10-16T04:51:57;3.83;;;1.15;;
32788;SDS011;19141;48.980;8.410;2022-10-16T04:54:23;1.30;;;1.05;;
32788;SDS011;19141;48.980;8.410;2022-10-16T04:56:48;1.30;;;1.00;;
32788;SDS011;19141;48.980;8.410;2022-10-16T04:59:16;1.45;;;0.93;;
32788;SDS011;19141;48.980;8.410;2022-10-16T05:01:42;8.18;;;1.40;;
32788;SDS011;19141;48.980;8.410;2022-10-16T05:04:08;1.67;;;1.08;;
32788;SDS011;19141;48.980;8.410;2022-10-16T05:06:34;4.78;;;1.20;;
32788;SDS011;19141;48.980;8.410;2022-10-16T05:08:59;1.10;;;1.00;;
32788;SDS011;19141;48.980;8.410;2022-10-16T05:11:25;2.05;;;1.17;;
32788;SDS011;19141;48.980;8.410;2022-10-16T05:13:50;0.98;;;0.90;;
32788;SDS011;19141;48.980;8.410;2022-10-16T05:16:15;1.48;;;0.90;;
32788;SDS011;19141;48.980;8.410;2022-10-16T05:18:41;1.40;;;1.13;;
32788;SDS011;19141;48.980;8.410;2022-10-16T05:21:06;1.77;;;1.30;;
32788;SDS011;19141;48.980;8.410;2022-10-16T05:23:32;5.07;;;1.33;;
32788;SDS011;19141;48.980;8.410;2022-10-16T05:25:59;3.45;;;1.27;;
32788;SDS011;19141;48.980;8.410;2022-10-16T05:28:25;1.15;;;1.00;;
32788;SDS011;19141;48.980;8.410;2022-10-16T05:30:52;1.48;;;1.10;;
32788;SDS011;19141;48.980;8.410;2022-10-16T05:33:19;4.25;;;0.98;;
32788;SDS011;19141;48.980;8.410;2022-10-16T05:35:45;4.13;;;1.15;;
32788;SDS011;19141;48.980;8.410;2022-10-16T05:38:11;1.58;;;1.05;;
32788;SDS011;19141;48.980;8.410;2022-10-16T05:40:36;2.42;;;1.52;;
32788;SDS011;19141;48.980;8.410;2022-10-16T05:43:02;1.40;;;1.13;;
32788;SDS011;19141;48.980;8.410;2022-10-16T05:45:27;1.67;;;1.00;;
32788;SDS011;19141;48.980;8.410;2022-10-16T05:47:53;1.83;;;0.90;;
32788;SDS011;19141;48.980;8.410;2022-10-16T05:50:18;3.15;;;1.55;;
32788;SDS011;19141;48.980;8.410;2022-10-16T05:52:44;0.70;;;0.65;;
32788;SDS011;19141;48.980;8.410;2022-10-16T05:55:09;2.75;;;0.88;;
32788;SDS011;19141;48.980;8.410;2022-10-16T05:57:34;1.60;;;1.10;;
32788;SDS011;19141;48.980;8.410;2022-10-16T06:00:00;6.57;;;0.90;;
32788;SDS011;19141;48.980;8.410;2022-10-16T06:02:25;2.10;;;1.05;;
32788;SDS011;19141;48.980;8.410;2022-10-16T06:04:51;5.35;;;1.17;;
32788;SDS011;19141;48.980;8.410;2022-10-16T06:09:44;1.23;;;1.08;;
32788;SDS011;19141;48.980;8.410;2022-10-16T06:12:09;4.93;;;1.50;;
32788;SDS011;19141;48.980;8.410;2022-10-16T06:14:34;4.05;;;1.85;;
32788;SDS011;19141;48.980;8.410;2022-10-16T06:17:00;3.28;;;1.30;;
32788;SDS011;19141;48.980;8.410;2022-10-16T06:19:25;4.60;;;2.92;;
32788;SDS011;19141;48.980;8.410;2022-10-16T06:21:50;3.97;;;2.22;;
32788;SDS011;19141;48.980;8.410;2022-10-16T06:24:16;2.03;;;1.15;;
32788;SDS011;19141;48.980;8.410;2022-10-16T06:26:41;6.15;;;2.83;;
32788;SDS011;19141;48.980;8.410;2022-10-16T06:29:07;4.13;;;1.52;;
32788;SDS011;19141;48.980;8.410;2022-10-16T06:31:33;6.38;;;2.47;;
32788;SDS011;19141;48.980;8.410;2022-10-16T06:33:58;1.90;;;1.35;;
32788;SDS011;19141;48.980;8.410;2022-10-16T06:36:24;2.85;;;1.80;;
32788;SDS011;19141;48.980;8.410;2022-10-16T06:38:50;2.40;;;1.73;;
32788;SDS011;19141;48.980;8.410;2022-10-16T06:41:17;1.60;;;1.20;;
32788;SDS011;19141;48.980;8.410;2022-10-16T06:46:10;1.48;;;1.00;;
32788;SDS011;19141;48.980;8.410;2022-10-16T06:48:37;2.85;;;1.17;;
32788;SDS011;19141;48.980;8.410;2022-10-16T06:51:04;1.52;;;1.00;;
32788;SDS011;19141;48.980;8.410;2022-10-16T06:53:38;1.63;;;0.80;;
32788;SDS011;19141;48.980;8.410;2022-10-16T06:58:44;2.03;;;1.27;;
32788;SDS011;19141;48.980;8.410;2022-10-16T07:01:10;1.42;;;1.00;;
32788;SDS011;19141;48.980;8.410;2022-10-16T07:03:36;1.30;;;0.93;;
32788;SDS011;19141;48.980;8.410;2022-10-16T07:06:04;1.30;;;1.05;;
32788;SDS011;19141;48.980;8.410;2022-10-16T07:08:34;3.28;;;1.13;;
32788;SDS011;19141;48.980;8.410;2022-10-16T07:11:01;1.30;;;1.08;;
32788;SDS011;19141;48.980;8.410;2022-10-16T07:13:28;1.27;;;1.05;;
32788;SDS011;19141;48.980;8.410;2022-10-16T07:15:54;2.78;;;0.60;;
32788;SDS011;19141;48.980;8.410;2022-10-16T07:18:19;1.85;;;1.15;;
32788;SDS011;19141;48.980;8.410;2022-10-16T07:20:44;2.15;;;1.13;;
32788;SDS011;19141;48.980;8.410;2022-10-16T07:23:10;3.40;;;1.30;;
32788;SDS011;19141;48.980;8.410;2022-10-16T07:25:35;1.05;;;0.85;;
32788;SDS011;19141;48.980;8.410;2022-10-16T07:28:01;1.52;;;1.20;;
32788;SDS011;19141;48.980;8.410;2022-10-16T07:30:26;1.63;;;1.30;;
32788;SDS011;19141;48.980;8.410;2022-10-16T07:32:54;1.08;;;0.98;;
32788;SDS011;19141;48.980;8.410;2022-10-16T07:35:19;7.82;;;4.60;;
32788;SDS011;19141;48.980;8.410;2022-10-16T07:37:45;3.13;;;2.10;;
32788;SDS011;19141;48.980;8.410;2022-10-16T07:40:11;1.50;;;1.20;;
32788;SDS011;19141;48.980;8.410;2022-10-16T07:42:36;3.10;;;1.70;;
32788;SDS011;19141;48.980;8.410;2022-10-16T07:45:02;1.65;;;1.00;;
32788;SDS011;19141;48.980;8.410;2022-10-16T07:47:27;3.97;;;1.00;;
32788;SDS011;19141;48.980;8.410;2022-10-16T07:49:53;1.33;;;0.90;;
32788;SDS011;19141;48.980;8.410;2022-10-16T07:52:18;1.40;;;1.08;;
32788;SDS011;19141;48.980;8.410;2022-10-16T07:54:44;3.08;;;1.67;;
32788;SDS011;19141;48.980;8.410;2022-10-16T07:57:09;1.38;;;1.00;;
32788;SDS011;19141;48.980;8.410;2022-10-16T07:59:35;1.40;;;1.13;;
32788;SDS011;19141;48.980;8.410;2022-10-16T08:02:00;2.40;;;1.58;;
32788;SDS011;19141;48.980;8.410;2022-10-16T08:04:25;1.60;;;1.02;;
32788;SDS011;19141;48.980;8.410;2022-10-16T08:06:51;1.30;;;1.20;;
32788;SDS011;19141;48.980;8.410;2022-10-16T08:09:16;2.05;;;1.42;;
32788;SDS011;19141;48.980;8.410;2022-10-16T08:11:42;4.03;;;2.53;;
32788;SDS011;19141;48.980;8.410;2022-10-16T08:14:07;3.97;;;1.98;;
32788;SDS011;19141;48.980;8.410;2022-10-16T08:16:33;3.35;;;1.60;;
32788;SDS011;19141;48.980;8.410;2022-10-16T08:18:58;1.77;;;1.42;;
32788;SDS011;19141;48.980;8.410;2022-10-16T08:21:24;1.45;;;1.15;;
32788;SDS011;19141;48.980;8.410;2022-10-16T08:23:50;1.70;;;1.10;;
32788;SDS011;19141;48.980;8.410;2022-10-16T08:26:15;2.13;;;1.33;;
32788;SDS011;19141;48.980;8.410;2022-10-16T08:28:41;2.53;;;1.50;;
32788;SDS011;19141;48.980;8.410;2022-10-16T08:31:11;2.30;;;1.38;;
32788;SDS011;19141;48.980;8.410;2022-10-16T08:33:41;1.58;;;1.17;;
32788;SDS011;19141;48.980;8.410;2022-10-16T08:36:08;2.75;;;1.15;;
32788;SDS011;19141;48.980;8.410;2022-10-16T08:38:34;1.20;;;1.10;;
32788;SDS011;19141;48.980;8.410;2022-10-16T08:43:39;1.30;;;1.20;;
32788;SDS011;19141;48.980;8.410;2022-10-16T08:46:39;1.05;;;0.88;;
32788;SDS011;19141;48.980;8.410;2022-10-16T08:49:14;0.88;;;0.80;;
32788;SDS011;19141;48.980;8.410;2022-10-16T08:51:40;2.00;;;0.90;;
32788;SDS011;19141;48.980;8.410;2022-10-16T08:59:20;1.50;;;1.20;;
32788;SDS011;19141;48.980;8.410;2022-10-16T09:01:46;1.35;;;1.20;;
32788;SDS011;19141;48.980;8.410;2022-10-16T09:07:16;2.55;;;0.80;;
32788;SDS011;19141;48.980;8.410;2022-10-16T09:09:54;1.42;;;0.98;;
32788;SDS011;19141;48.980;8.410;2022-10-16T09:15:26;1.60;;;1.10;;
32788;SDS011;19141;48.980;8.410;2022-10-16T09:18:01;2.22;;;1.45;;
32788;SDS011;19141;48.980;8.410;2022-10-16T09:20:35;1.27;;;1.00;;
32788;SDS011;19141;48.980;8.410;2022-10-16T09:23:13;1.33;;;0.90;;
32788;SDS011;19141;48.980;8.410;2022-10-16T09:25:41;5.53;;;1.27;;
32788;SDS011;19141;48.980;8.410;2022-10-16T09:28:10;1.48;;;0.98;;
32788;SDS011;19141;48.980;8.410;2022-10-16T09:30:36;1.48;;;1.10;;
32788;SDS011;19141;48.980;8.410;2022-10-16T09:33:02;1.33;;;1.00;;
32788;SDS011;19141;48.980;8.410;2022-10-16T09:35:33;2.08;;;1.40;;
32788;SDS011;19141;48.980;8.410;2022-10-16T09:38:03;2.28;;;1.10;;
32788;SDS011;19141;48.980;8.410;2022-10-16T09:40:30;2.28;;;1.10;;
32788;SDS011;19141;48.980;8.410;2022-10-16T09:43:01;2.17;;;1.75;;
32788;SDS011;19141;48.980;8.410;2022-10-16T09:46:02;1.40;;;1.17;;
32788;SDS011;19141;48.980;8.410;2022-10-16T09:48:33;3.47;;;0.90;;
32788;SDS011;19141;48.980;8.410;2022-10-16T09:51:17;0.98;;;0.80;;
32788;SDS011;19141;48.980;8.410;2022-10-16T09:53:46;1.65;;;1.20;;
32788;SDS011;19141;48.980;8.410;2022-10-16T09:56:20;1.00;;;0.88;;
32788;SDS011;19141;48.980;8.410;2022-10-16T09:58:58;3.88;;;0.90;;
32788;SDS011;19141;48.980;8.410;2022-10-16T10:01:36;0.82;;;0.75;;
32788;SDS011;19141;48.980;8.410;2022-10-16T10:04:03;5.18;;;0.88;;
32788;SDS011;19141;48.980;8.410;2022-10-16T10:06:30;1.05;;;0.93;;
32788;SDS011;19141;48.980;8.410;2022-10-16T10:14:25;1.05;;;0.70;;
32788;SDS011;19141;48.980;8.410;2022-10-16T10:19:46;1.23;;;1.00;;
32788;SDS011;19141;48.980;8.410;2022-10-16T10:22:17;3.58;;;0.82;;
32788;SDS011;19141;48.980;8.410;2022-10-16T10:27:35;1.25;;;1.00;;
32788;SDS011;19141;48.980;8.410;2022-10-16T10:30:18;0.93;;;0.80;;
32788;SDS011;19141;48.980;8.410;2022-10-16T10:35:45;0.93;;;0.90;;
32788;SDS011;19141;48.980;8.410;2022-10-16T10:38:32;1.73;;;0.90;;
32788;SDS011;19141;48.980;8.410;2022-10-16T10:54:46;0.93;;;0.70;;
32788;SDS011;19141;48.980;8.410;2022-10-16T11:02:37;2.60;;;0.95;;
32788;SDS011;19141;48.980;8.410;2022-10-16T11:10:51;4.22;;;1.17;;
32788;SDS011;19141;48.980;8.410;2022-10-16T11:16:06;2.65;;;1.00;;
32788;SDS011;19141;48.980;8.410;2022-10-16T11:21:14;1.70;;;1.23;;
32788;SDS011;19141;48.980;8.410;2022-10-16T11:23:47;2.22;;;1.48;;
32788;SDS011;19141;48.980;8.410;2022-10-16T11:26:16;1.52;;;1.13;;
32788;SDS011;19141;48.980;8.410;2022-10-16T11:28:47;1.42;;;0.90;;
32788;SDS011;19141;48.980;8.410;2022-10-16T11:44:34;1.15;;;0.85;;
32788;SDS011;19141;48.980;8.410;2022-10-16T11:50:06;1.08;;;0.90;;
32788;SDS011;19141;48.980;8.410;2022-10-16T11:52:51;1.63;;;1.02;;
32788;SDS011;19141;48.980;8.410;2022-10-16T11:55:21;1.77;;;1.00;;
32788;SDS011;19141;48.980;8.410;2022-10-16T11:58:12;1.75;;;1.23;;
32788;SDS011;19141;48.980;8.410;2022-10-16T12:00:43;2.20;;;0.80;;
32788;SDS011;19141;48.980;8.410;2022-10-16T12:06:13;0.65;;;0.60;;
32788;SDS011;19141;48.980;8.410;2022-10-16T12:08:59;1.20;;;0.85;;
32788;SDS011;19141;48.980;8.410;2022-10-16T12:13:51;2.50;;;0.70;;
32788;SDS011;19141;48.980;8.410;2022-10-16T12:16:20;1.27;;;1.00;;
32788;SDS011;19141;48.980;8.410;2022-10-16T12:18:47;1.00;;;0.70;;
32788;SDS011;19141;48.980;8.410;2022-10-16T12:21:13;1.05;;;0.90;;
32788;SDS011;19141;48.980;8.410;2022-10-16T12:26:23;1.98;;;0.80;;
32788;SDS011;19141;48.980;8.410;2022-10-16T12:28:53;1.47;;;1.13;;
32788;SDS011;19141;48.980;8.410;2022-10-16T12:31:20;1.40;;;0.98;;
32788;SDS011;19141;48.980;8.410;2022-10-16T12:33:57;0.80;;;0.73;;
32788;SDS011;19141;48.980;8.410;2022-10-16T12:36:28;2.42;;;1.08;;
32788;SDS011;19141;48.980;8.410;2022-10-16T12:38:56;1.95;;;1.17;;
32788;SDS011;19141;48.980;8.410;2022-10-16T12:41:25;1.75;;;1.05;;
32788;SDS011;19141;48.980;8.410;2022-10-16T12:43:56;22.08;;;12.85;;
32788;SDS011;19141;48.980;8.410;2022-10-16T12:49:04;28.25;;;16.45;;
32788;SDS011;19141;48.980;8.410;2022-10-16T12:51:50;50.00;;;27.75;;
32788;SDS011;19141;48.980;8.410;2022-10-16T12:54:58;31.27;;;18.55;;
32788;SDS011;19141;48.980;8.410;2022-10-16T13:10:39;2.58;;;1.48;;
32788;SDS011;19141;48.980;8.410;2022-10-16T13:16:12;5.15;;;1.67;;
32788;SDS011;19141;48.980;8.410;2022-10-16T13:24:16;1.35;;;1.02;;
32788;SDS011;19141;48.980;8.410;2022-10-16T13:27:14;2.13;;;1.13;;
32788;SDS011;19141;48.980;8.410;2022-10-16T13:29:59;3.15;;;1.50;;
32788;SDS011;19141;48.980;8.410;2022-10-16T13:32:46;1.30;;;1.10;;
32788;SDS011;19141;48.980;8.410;2022-10-16T13:35:27;1.58;;;1.10;;
32788;SDS011;19141;48.980;8.410;2022-10-16T13:38:05;4.88;;;3.10;;
32788;SDS011;19141;48.980;8.410;2022-10-16T13:40:48;3.47;;;2.50;;
32788;SDS011;19141;48.980;8.410;2022-10-16T13:43:20;3.35;;;1.77;;
32788;SDS011;19141;48.980;8.410;2022-10-16T13:45:52;2.13;;;1.13;;
32788;SDS011;19141;48.980;8.410;2022-10-16T13:48:29;1.58;;;1.05;;
32788;SDS011;19141;48.980;8.410;2022-10-16T13:50:59;5.77;;;1.50;;
32788;SDS011;19141;48.980;8.410;2022-10-16T13:53:24;1.60;;;1.30;;
32788;SDS011;19141;48.980;8.410;2022-10-16T13:55:50;3.65;;;1.60;;
32788;SDS011;19141;48.980;8.410;2022-10-16T13:58:15;4.40;;;3.40;;
32788;SDS011;19141;48.980;8.410;2022-10-16T14:00:41;2.70;;;1.77;;
32788;SDS011;19141;48.980;8.410;2022-10-16T14:03:22;4.25;;;2.95;;
32788;SDS011;19141;48.980;8.410;2022-10-16T14:05:49;6.20;;;3.45;;
32788;SDS011;19141;48.980;8.410;2022-10-16T14:08:17;3.20;;;2.58;;
32788;SDS011;19141;48.980;8.410;2022-10-16T14:10:43;2.25;;;1.90;;
32788;SDS011;19141;48.980;8.410;2022-10-16T14:13:15;4.05;;;1.30;;
32788;SDS011;19141;48.980;8.410;2022-10-16T14:15:45;0.95;;;0.80;;
32788;SDS011;19141;48.980;8.410;2022-10-16T14:18:16;1.63;;;1.13;;
32788;SDS011;19141;48.980;8.410;2022-10-16T14:20:45;2.58;;;1.20;;
32788;SDS011;19141;48.980;8.410;2022-10-16T14:23:23;5.82;;;3.40;;
32788;SDS011;19141;48.980;8.410;2022-10-16T14:28:38;3.40;;;1.50;;
32788;SDS011;19141;48.980;8.410;2022-10-16T14:33:59;2.72;;;2.53;;
32788;SDS011;19141;48.980;8.410;2022-10-16T14:36:25;4.00;;;3.60;;
32788;SDS011;19141;48.980;8.410;2022-10-16T14:41:27;3.45;;;3.00;;
32788;SDS011;19141;48.980;8.410;2022-10-16T14:43:54;2.92;;;1.85;;
32788;SDS011;19141;48.980;8.410;2022-10-16T14:46:29;4.00;;;1.48;;
32788;SDS011;19141;48.980;8.410;2022-10-16T14:51:39;1.13;;;0.90;;
32788;SDS011;19141;48.980;8.410;2022-10-16T14:54:10;2.38;;;1.33;;
32788;SDS011;19141;48.980;8.410;2022-10-16T14:56:43;1.63;;;1.08;;
32788;SDS011;19141;48.980;8.410;2022-10-16T14:59:16;1.23;;;0.88;;
32788;SDS011;19141;48.980;8.410;2022-10-16T15:01:44;2.60;;;1.35;;
32788;SDS011;19141;48.980;8.410;2022-10-16T15:04:11;1.13;;;1.00;;
32788;SDS011;19141;48.980;8.410;2022-10-16T15:06:37;1.38;;;1.13;;
32788;SDS011;19141;48.980;8.410;2022-10-16T15:09:03;1.15;;;1.05;;
32788;SDS011;19141;48.980;8.410;2022-10-16T15:11:28;2.10;;;1.58;;
32788;SDS011;19141;48.980;8.410;2022-10-16T15:16:21;2.00;;;1.50;;
32788;SDS011;19141;48.980;8.410;2022-10-16T15:18:46;1.42;;;1.33;;
32788;SDS011;19141;48.980;8.410;2022-10-16T15:21:20;2.42;;;1.77;;
32788;SDS011;19141;48.980;8.410;2022-10-16T15:23:51;2.22;;;1.48;;
32788;SDS011;19141;48.980;8.410;2022-10-16T15:26:17;2.40;;;1.73;;
32788;SDS011;19141;48.980;8.410;2022-10-16T15:28:42;1.50;;;1.30;;
32788;SDS011;19141;48.980;8.410;2022-10-16T15:31:08;2.95;;;1.98;;
32788;SDS011;19141;48.980;8.410;2022-10-16T15:33:33;4.63;;;2.58;;
32788;SDS011;19141;48.980;8.410;2022-10-16T15:36:00;2.28;;;1.83;;
32788;SDS011;19141;48.980;8.410;2022-10-16T15:38:27;3.47;;;2.35;;
32788;SDS011;19141;48.980;8.410;2022-10-16T15:40:53;4.63;;;1.80;;
32788;SDS011;19141;48.980;8.410;2022-10-16T15:43:19;3.47;;;1.40;;
32788;SDS011;19141;48.980;8.410;2022-10-16T15:45:58;2.22;;;1.33;;
32788;SDS011;19141;48.980;8.410;2022-10-16T15:48:26;2.47;;;1.55;;
32788;SDS011;19141;48.980;8.410;2022-10-16T15:50:52;2.00;;;1.40;;
32788;SDS011;19141;48.980;8.410;2022-10-16T15:53:17;3.63;;;1.70;;
32788;SDS011;19141;48.980;8.410;2022-10-16T15:55:42;1.77;;;1.50;;
32788;SDS011;19141;48.980;8.410;2022-10-16T15:58:08;3.63;;;1.55;;
32788;SDS011;19141;48.980;8.410;2022-10-16T16:00:33;1.95;;;1.40;;
32788;SDS011;19141;48.980;8.410;2022-10-16T16:02:59;2.00;;;1.15;;
32788;SDS011;19141;48.980;8.410;2022-10-16T16:05:24;1.80;;;1.42;;
32788;SDS011;19141;48.980;8.410;2022-10-16T16:07:50;3.20;;;1.95;;
32788;SDS011;19141;48.980;8.410;2022-10-16T16:10:16;2.17;;;1.10;;
32788;SDS011;19141;48.980;8.410;2022-10-16T16:12:42;4.47;;;1.20;;
32788;SDS011;19141;48.980;8.410;2022-10-16T16:15:08;3.80;;;1.42;;
32788;SDS011;19141;48.980;8.410;2022-10-16T16:17:35;1.83;;;1.17;;
32788;SDS011;19141;48.980;8.410;2022-10-16T16:20:01;1.88;;;1.17;;
32788;SDS011;19141;48.980;8.410;2022-10-16T16:22:27;2.38;;;1.42;;
32788;SDS011;19141;48.980;8.410;2022-10-16T16:24:53;3.30;;;1.55;;
32788;SDS011;19141;48.980;8.410;2022-10-16T16:27:18;5.30;;;2.20;;
32788;SDS011;19141;48.980;8.410;2022-10-16T16:29:45;3.10;;;2.17;;
32788;SDS011;19141;48.980;8.410;2022-10-16T16:32:14;2.75;;;1.30;;
32788;SDS011;19141;48.980;8.410;2022-10-16T16:34:39;1.17;;;1.05;;
32788;SDS011;19141;48.980;8.410;2022-10-16T16:37:05;3.88;;;1.38;;
32788;SDS011;19141;48.980;8.410;2022-10-16T16:39:30;2.20;;;1.65;;
32788;SDS011;19141;48.980;8.410;2022-10-16T16:41:56;11.30;;;4.00;;
32788;SDS011;19141;48.980;8.410;2022-10-16T16:44:23;6.40;;;3.67;;
32788;SDS011;19141;48.980;8.410;2022-10-16T16:46:49;5.63;;;4.32;;
32788;SDS011;19141;48.980;8.410;2022-10-16T16:49:14;5.32;;;3.38;;
32788;SDS011;19141;48.980;8.410;2022-10-16T16:51:40;4.40;;;3.35;;
32788;SDS011;19141;48.980;8.410;2022-10-16T16:54:06;3.78;;;2.22;;
32788;SDS011;19141;48.980;8.410;2022-10-16T16:56:32;2.10;;;1.40;;
32788;SDS011;19141;48.980;8.410;2022-10-16T16:58:59;2.97;;;2.03;;
32788;SDS011;19141;48.980;8.410;2022-10-16T17:01:25;1.40;;;1.30;;
32788;SDS011;19141;48.980;8.410;2022-10-16T17:03:53;2.92;;;1.75;;
32788;SDS011;19141;48.980;8.410;2022-10-16T17:06:20;2.08;;;1.60;;
32788;SDS011;19141;48.980;8.410;2022-10-16T17:11:14;2.05;;;1.60;;
32788;SDS011;19141;48.980;8.410;2022-10-16T17:13:42;5.63;;;3.35;;
32788;SDS011;19141;48.980;8.410;2022-10-16T17:16:08;5.40;;;2.75;;
32788;SDS011;19141;48.980;8.410;2022-10-16T17:18:34;3.47;;;2.20;;
32788;SDS011;19141;48.980;8.410;2022-10-16T17:21:00;5.22;;;2.03;;
32788;SDS011;19141;48.980;8.410;2022-10-16T17:23:28;4.07;;;1.80;;
32788;SDS011;19141;48.980;8.410;2022-10-16T17:25:53;3.05;;;2.10;;
32788;SDS011;19141;48.980;8.410;2022-10-16T17:28:19;3.75;;;2.50;;
32788;SDS011;19141;48.980;8.410;2022-10-16T17:30:44;3.22;;;1.90;;
32788;SDS011;19141;48.980;8.410;2022-10-16T17:33:10;2.50;;;1.90;;
32788;SDS011;19141;48.980;8.410;2022-10-16T17:35:40;8.50;;;2.95;;
32788;SDS011;19141;48.980;8.410;2022-10-16T17:38:09;4.97;;;2.03;;
32788;SDS011;19141;48.980;8.410;2022-10-16T17:40:36;5.93;;;2.20;;
32788;SDS011;19141;48.980;8.410;2022-10-16T17:43:02;3.15;;;2.05;;
32788;SDS011;19141;48.980;8.410;2022-10-16T17:45:27;1.88;;;1.60;;
32788;SDS011;19141;48.980;8.410;2022-10-16T17:47:54;2.83;;;1.80;;
32788;SDS011;19141;48.980;8.410;2022-10-16T17:50:19;4.03;;;2.40;;
32788;SDS011;19141;48.980;8.410;2022-10-16T17:52:45;3.83;;;2.53;;
32788;SDS011;19141;48.980;8.410;2022-10-16T17:55:10;9.82;;;4.18;;
32788;SDS011;19141;48.980;8.410;2022-10-16T17:57:36;5.97;;;3.47;;
32788;SDS011;19141;48.980;8.410;2022-10-16T18:00:02;5.45;;;3.40;;
32788;SDS011;19141;48.980;8.410;2022-10-16T18:04:55;7.18;;;4.18;;
32788;SDS011;19141;48.980;8.410;2022-10-16T18:07:20;2.47;;;1.90;;
32788;SDS011;19141;48.980;8.410;2022-10-16T18:09:46;4.72;;;2.35;;
32788;SDS011;19141;48.980;8.410;2022-10-16T18:12:11;3.20;;;2.15;;
32788;SDS011;19141;48.980;8.410;2022-10-16T18:14:37;4.25;;;2.83;;
32788;SDS011;19141;48.980;8.410;2022-10-16T18:17:03;2.92;;;1.98;;
32788;SDS011;19141;48.980;8.410;2022-10-16T18:19:28;6.68;;;2.65;;
32788;SDS011;19141;48.980;8.410;2022-10-16T18:21:54;3.58;;;2.10;;
32788;SDS011;19141;48.980;8.410;2022-10-16T18:24:20;3.42;;;2.05;;
32788;SDS011;19141;48.980;8.410;2022-10-16T18:29:13;2.10;;;1.83;;
32788;SDS011;19141;48.980;8.410;2022-10-16T18:31:39;2.75;;;2.15;;
32788;SDS011;19141;48.980;8.410;2022-10-16T18:34:05;2.33;;;1.52;;
32788;SDS011;19141;48.980;8.410;2022-10-16T18:36:31;3.83;;;2.00;;
32788;SDS011;19141;48.980;8.410;2022-10-16T18:38:58;3.85;;;2.35;;
32788;SDS011;19141;48.980;8.410;2022-10-16T18:41:25;3.80;;;1.95;;
32788;SDS011;19141;48.980;8.410;2022-10-16T18:43:51;2.40;;;1.73;;
32788;SDS011;19141;48.980;8.410;2022-10-16T18:46:21;3.65;;;2.33;;
32788;SDS011;19141;48.980;8.410;2022-10-16T18:48:50;3.65;;;2.72;;
32788;SDS011;19141;48.980;8.410;2022-10-16T18:51:22;4.50;;;2.53;;
32788;SDS011;19141;48.980;8.410;2022-10-16T18:53:54;4.70;;;2.20;;
32788;SDS011;19141;48.980;8.410;2022-10-16T18:56:22;4.32;;;1.83;;
32788;SDS011;19141;48.980;8.410;2022-10-16T18:58:49;2.60;;;1.95;;
32788;SDS011;19141;48.980;8.410;2022-10-16T19:01:17;5.07;;;1.77;;
32788;SDS011;19141;48.980;8.410;2022-10-16T19:03:45;2.17;;;1.65;;
32788;SDS011;19141;48.980;8.410;2022-10-16T19:06:12;5.25;;;2.45;;
32788;SDS011;19141;48.980;8.410;2022-10-16T19:08:40;2.63;;;2.13;;
32788;SDS011;19141;48.980;8.410;2022-10-16T19:11:14;4.00;;;2.70;;
32788;SDS011;19141;48.980;8.410;2022-10-16T19:13:43;3.63;;;2.40;;
32788;SDS011;19141;48.980;8.410;2022-10-16T19:16:10;3.97;;;2.65;;
32788;SDS011;19141;48.980;8.410;2022-10-16T19:18:37;3.88;;;2.80;;
32788;SDS011;19141;48.980;8.410;2022-10-16T19:21:06;4.90;;;3.35;;
32788;SDS011;19141;48.980;8.410;2022-10-16T19:23:33;3.70;;;2.47;;
32788;SDS011;19141;48.980;8.410;2022-10-16T19:26:02;3.50;;;2.65;;
32788;SDS011;19141;48.980;8.410;2022-10-16T19:28:29;3.10;;;1.95;;
32788;SDS011;19141;48.980;8.410;2022-10-16T19:30:54;2.88;;;2.28;;
32788;SDS011;19141;48.980;8.410;2022-10-16T19:33:20;3.00;;;2.30;;
32788;SDS011;19141;48.980;8.410;2022-10-16T19:35:45;6.00;;;2.55;;
32788;SDS011;19141;48.980;8.410;2022-10-16T19:38:11;6.57;;;3.70;;
32788;SDS011;19141;48.980;8.410;2022-10-16T19:40:36;6.25;;;3.80;;
32788;SDS011;19141;48.980;8.410;2022-10-16T19:43:02;11.38;;;8.52;;
32788;SDS011;19141;48.980;8.410;2022-10-16T19:45:27;11.65;;;8.95;;
32788;SDS011;19141;48.980;8.410;2022-10-16T19:47:52;16.52;;;11.13;;
32788;SDS011;19141;48.980;8.410;2022-10-16T19:50:18;7.63;;;5.88;;
32788;SDS011;19141;48.980;8.410;2022-10-16T19:52:43;6.28;;;4.32;;
32788;SDS011;19141;48.980;8.410;2022-10-16T19:55:09;5.88;;;3.30;;
32788;SDS011;19141;48.980;8.410;2022-10-16T19:57:35;6.10;;;4.05;;
32788;SDS011;19141;48.980;8.410;2022-10-16T20:00:05;9.77;;;5.18;;
32788;SDS011;19141;48.980;8.410;2022-10-16T20:02:32;11.63;;;5.05;;
32788;SDS011;19141;48.980;8.410;2022-10-16T20:04:57;7.00;;;4.63;;
32788;SDS011;19141;48.980;8.410;2022-10-16T20:07:23;5.32;;;3.80;;
32788;SDS011;19141;48.980;8.410;2022-10-16T20:09:48;6.28;;;4.13;;
32788;SDS011;19141;48.980;8.410;2022-10-16T20:12:14;6.68;;;3.63;;
32788;SDS011;19141;48.980;8.410;2022-10-16T20:14:39;10.35;;;3.80;;
32788;SDS011;19141;48.980;8.410;2022-10-16T20:17:05;5.35;;;2.83;;
32788;SDS011;19141;48.980;8.410;2022-10-16T20:19:30;3.33;;;2.72;;
32788;SDS011;19141;48.980;8.410;2022-10-16T20:21:56;4.50;;;3.10;;
32788;SDS011;19141;48.980;8.410;2022-10-16T20:24:21;4.63;;;3.33;;
32788;SDS011;19141;48.980;8.410;2022-10-16T20:26:47;3.72;;;2.90;;
32788;SDS011;19141;48.980;8.410;2022-10-16T20:29:13;2.92;;;2.63;;
32788;SDS011;19141;48.980;8.410;2022-10-16T20:31:39;5.45;;;2.60;;
32788;SDS011;19141;48.980;8.410;2022-10-16T20:34:06;5.68;;;2.88;;
32788;SDS011;19141;48.980;8.410;2022-10-16T20:36:34;4.70;;;2.83;;
32788;SDS011;19141;48.980;8.410;2022-10-16T20:39:01;4.38;;;3.03;;
32788;SDS011;19141;48.980;8.410;2022-10-16T20:41:26;5.65;;;2.92;;
32788;SDS011;19141;48.980;8.410;2022-10-16T20:43:52;4.20;;;2.97;;
32788;SDS011;19141;48.980;8.410;2022-10-16T20:46:19;5.20;;;3.00;;
32788;SDS011;19141;48.980;8.410;2022-10-16T20:48:49;4.00;;;2.33;;
32788;SDS011;19141;48.980;8.410;2022-10-16T20:51:17;4.47;;;2.92;;
32788;SDS011;19141;48.980;8.410;2022-10-16T20:53:43;3.58;;;2.55;;
32788;SDS011;19141;48.980;8.410;2022-10-16T20:56:10;3.90;;;2.63;;
32788;SDS011;19141;48.980;8.410;2022-10-16T20:58:37;4.13;;;2.58;;
32788;SDS011;19141;48.980;8.410;2022-10-16T21:01:05;3.80;;;2.75;;
32788;SDS011;19141;48.980;8.410;2022-10-16T21:03:36;3.22;;;2.67;;
32788;SDS011;19141;48.980;8.410;2022-10-16T21:06:02;4.82;;;2.40;;
32788;SDS011;19141;48.980;8.410;2022-10-16T21:08:38;3.58;;;2.50;;
32788;SDS011;19141;48.980;8.410;2022-10-16T21:13:37;7.72;;;3.35;;
32788;SDS011;19141;48.980;8.410;2022-10-16T21:16:03;5.60;;;2.72;;
32788;SDS011;19141;48.980;8.410;2022-10-16T21:18:29;3.88;;;2.70;;
32788;SDS011;19141;48.980;8.410;2022-10-16T21:20:55;3.15;;;2.25;;
32788;SDS011;19141;48.980;8.410;2022-10-16T21:23:20;4.15;;;2.60;;
32788;SDS011;19141;48.980;8.410;2022-10-16T21:25:49;5.40;;;2.92;;
32788;SDS011;19141;48.980;8.410;2022-10-16T21:28:15;3.88;;;2.67;;
32788;SDS011;19141;48.980;8.410;2022-10-16T21:30:40;3.75;;;2.45;;
32788;SDS011;19141;48.980;8.410;2022-10-16T21:33:06;3.67;;;2.15;;